sensor_id;sensor_type;location;lat;lon;timestamp;pressure;altitude;pressure_sealevel;temperature;humidity
58975;BME280;44751;52.236;5.178;2022-11-20T00:01:14;101224.44;;;-3.17;100.00
58975;BME280;44751;52.236;5.178;2022-11-20T00:03:41;101231.53;;;-3.35;100.00
58975;BME280;44751;52.236;5.178;2022-11-20T00:06:18;101230.44;;;-3.31;100.00
58975;BME280;44751;52.236;5.178;2022-11-20T00:08:50;101231.28;;;-3.13;100.00
58975;BME280;44751;52.236;5.178;2022-11-20T00:11:22;101230.78;;;-3.04;100.00
58975;BME280;44751;52.236;5.178;2022-11-20T00:13:51;101229.66;;;-3.16;100.00
58975;BME280;44751;52.236;5.178;2022-11-20T00:16:21;101240.53;;;-3.40;100.00
58975;BME280;44751;52.236;5.178;2022-11-20T00:18:48;101238.91;;;-3.42;100.00
58975;BME280;44751;52.236;5.178;2022-11-20T00:21:20;101225.84;;;-3.28;100.00
58975;BME280;44751;52.236;5.178;2022-11-20T00:23:48;101224.75;;;-3.06;100.00
58975;BME280;44751;52.236;5.178;2022-11-20T00:26:19;101223.19;;;-3.10;100.00
58975;BME280;44751;52.236;5.178;2022-11-20T00:28:54;101230.03;;;-3.24;100.00
58975;BME280;44751;52.236;5.178;2022-11-20T00:31:21;101227.81;;;-3.31;100.00
58975;BME280;44751;52.236;5.178;2022-11-20T00:33:48;101226.94;;;-3.14;100.00
58975;BME280;44751;52.236;5.178;2022-11-20T00:36:17;101226.38;;;-3.21;100.00
58975;BME280;44751;52.236;5.178;2022-11-20T00:38:44;101221.22;;;-3.22;100.00
58975;BME280;44751;52.236;5.178;2022-11-20T00:41:14;101214.38;;;-3.27;100.00
58975;BME280;44751;52.236;5.178;2022-11-20T00:43:41;101228.66;;;-3.48;100.00
58975;BME280;44751;52.236;5.178;2022-11-20T00:46:12;101222.16;;;-3.41;100.00
58975;BME280;44751;52.236;5.178;2022-11-20T00:48:38;101223.88;;;-3.06;100.00
58975;BME280;44751;52.236;5.178;2022-11-20T00:51:05;101210.88;;;-3.27;100.00
58975;BME280;44751;52.236;5.178;2022-11-20T00:53:32;101216.00;;;-3.42;100.00
58975;BME280;44751;52.236;5.178;2022-11-20T00:56:00;101214.06;;;-3.56;100.00
58975;BME280;44751;52.236;5.178;2022-11-20T00:58:33;101211.31;;;-3.70;100.00
58975;BME280;44751;52.236;5.178;2022-11-20T01:01:05;101214.72;;;-3.86;100.00
58975;BME280;44751;52.236;5.178;2022-11-20T01:03:33;101216.94;;;-3.78;100.00
58975;BME280;44751;52.236;5.178;2022-11-20T01:06:05;101215.25;;;-3.61;100.00
58975;BME280;44751;52.236;5.178;2022-11-20T01:08:33;101208.88;;;-3.40;100.00
58975;BME280;44751;52.236;5.178;2022-11-20T01:11:02;101210.81;;;-3.43;100.00
58975;BME280;44751;52.236;5.178;2022-11-20T01:13:30;101203.38;;;-3.88;100.00
58975;BME280;44751;52.236;5.178;2022-11-20T01:16:13;101213.31;;;-3.76;100.00
58975;BME280;44751;52.236;5.178;2022-11-20T01:18:42;101197.78;;;-3.64;100.00
58975;BME280;44751;52.236;5.178;2022-11-20T01:21:11;101204.81;;;-3.63;100.00
58975;BME280;44751;52.236;5.178;2022-11-20T01:23:40;101199.13;;;-3.73;100.00
58975;BME280;44751;52.236;5.178;2022-11-20T01:26:10;101205.00;;;-3.85;100.00
58975;BME280;44751;52.236;5.178;2022-11-20T01:28:39;101209.22;;;-3.81;100.00
58975;BME280;44751;52.236;5.178;2022-11-20T01:33:42;101201.38;;;-3.65;100.00
58975;BME280;44751;52.236;5.178;2022-11-20T01:36:09;101204.38;;;-3.91;100.00
58975;BME280;44751;52.236;5.178;2022-11-20T01:38:36;101195.16;;;-3.99;100.00
58975;BME280;44751;52.236;5.178;2022-11-20T01:41:03;101188.88;;;-3.97;100.00
58975;BME280;44751;52.236;5.178;2022-11-20T01:43:29;101187.66;;;-3.72;100.00
58975;BME280;44751;52.236;5.178;2022-11-20T01:46:01;101194.25;;;-3.63;100.00
58975;BME280;44751;52.236;5.178;2022-11-20T01:49:05;101189.19;;;-3.85;100.00
58975;BME280;44751;52.236;5.178;2022-11-20T01:54:18;101182.28;;;-3.88;100.00
58975;BME280;44751;52.236;5.178;2022-11-20T01:56:46;101175.47;;;-4.10;100.00
58975;BME280;44751;52.236;5.178;2022-11-20T01:59:16;101183.75;;;-4.00;100.00
58975;BME280;44751;52.236;5.178;2022-11-20T02:01:44;101173.44;;;-4.22;100.00
58975;BME280;44751;52.236;5.178;2022-11-20T02:04:12;101183.50;;;-4.31;100.00
58975;BME280;44751;52.236;5.178;2022-11-20T02:06:44;101177.28;;;-4.30;100.00
58975;BME280;44751;52.236;5.178;2022-11-20T02:09:12;101188.63;;;-4.10;100.00
58975;BME280;44751;52.236;5.178;2022-11-20T02:11:38;101175.53;;;-3.94;100.00
58975;BME280;44751;52.236;5.178;2022-11-20T02:14:07;101182.28;;;-3.88;100.00
58975;BME280;44751;52.236;5.178;2022-11-20T02:16:36;101180.66;;;-4.08;100.00
58975;BME280;44751;52.236;5.178;2022-11-20T02:19:07;101173.13;;;-4.16;100.00
58975;BME280;44751;52.236;5.178;2022-11-20T02:24:21;101163.31;;;-3.77;100.00
58975;BME280;44751;52.236;5.178;2022-11-20T02:26:59;101165.56;;;-3.87;100.00
58975;BME280;44751;52.236;5.178;2022-11-20T02:29:31;101157.47;;;-4.19;100.00
58975;BME280;44751;52.236;5.178;2022-11-20T02:32:00;101164.31;;;-3.97;100.00
58975;BME280;44751;52.236;5.178;2022-11-20T02:34:28;101158.03;;;-4.12;100.00
58975;BME280;44751;52.236;5.178;2022-11-20T02:36:58;101166.53;;;-4.07;100.00
58975;BME280;44751;52.236;5.178;2022-11-20T02:39:27;101158.72;;;-4.09;100.00
58975;BME280;44751;52.236;5.178;2022-11-20T02:41:55;101160.91;;;-3.99;100.00
58975;BME280;44751;52.236;5.178;2022-11-20T02:44:22;101151.91;;;-3.95;100.00
58975;BME280;44751;52.236;5.178;2022-11-20T02:46:48;101146.94;;;-4.02;100.00
58975;BME280;44751;52.236;5.178;2022-11-20T02:49:15;101157.88;;;-4.09;100.00
58975;BME280;44751;52.236;5.178;2022-11-20T02:51:41;101165.31;;;-4.00;100.00
58975;BME280;44751;52.236;5.178;2022-11-20T02:54:08;101157.09;;;-4.11;100.00
58975;BME280;44751;52.236;5.178;2022-11-20T02:56:34;101158.09;;;-4.32;100.00
58975;BME280;44751;52.236;5.178;2022-11-20T02:59:03;101150.94;;;-4.30;100.00
58975;BME280;44751;52.236;5.178;2022-11-20T03:01:30;101151.53;;;-4.42;100.00
58975;BME280;44751;52.236;5.178;2022-11-20T03:03:59;101157.44;;;-4.37;100.00
58975;BME280;44751;52.236;5.178;2022-11-20T03:06:25;101146.19;;;-4.41;100.00
58975;BME280;44751;52.236;5.178;2022-11-20T03:08:51;101143.84;;;-4.28;100.00
58975;BME280;44751;52.236;5.178;2022-11-20T03:11:18;101139.09;;;-4.21;100.00
58975;BME280;44751;52.236;5.178;2022-11-20T03:13:44;101135.59;;;-4.21;100.00
58975;BME280;44751;52.236;5.178;2022-11-20T03:16:14;101136.06;;;-4.31;100.00
58975;BME280;44751;52.236;5.178;2022-11-20T03:18:41;101130.19;;;-4.55;100.00
58975;BME280;44751;52.236;5.178;2022-11-20T03:21:09;101122.09;;;-4.50;100.00
58975;BME280;44751;52.236;5.178;2022-11-20T03:23:36;101128.78;;;-4.43;100.00
58975;BME280;44751;52.236;5.178;2022-11-20T03:26:18;101128.91;;;-4.46;100.00
58975;BME280;44751;52.236;5.178;2022-11-20T03:28:51;101124.25;;;-4.41;100.00
58975;BME280;44751;52.236;5.178;2022-11-20T03:31:20;101115.69;;;-4.27;100.00
58975;BME280;44751;52.236;5.178;2022-11-20T03:33:49;101114.13;;;-4.31;100.00
58975;BME280;44751;52.236;5.178;2022-11-20T03:36:18;101124.06;;;-4.36;100.00
58975;BME280;44751;52.236;5.178;2022-11-20T03:38:45;101124.75;;;-4.33;100.00
58975;BME280;44751;52.236;5.178;2022-11-20T03:41:13;101118.84;;;-4.38;100.00
58975;BME280;44751;52.236;5.178;2022-11-20T03:43:41;101132.00;;;-4.56;100.00
58975;BME280;44751;52.236;5.178;2022-11-20T03:46:09;101118.25;;;-4.43;100.00
58975;BME280;44751;52.236;5.178;2022-11-20T03:48:35;101118.78;;;-4.36;100.00
58975;BME280;44751;52.236;5.178;2022-11-20T03:51:10;101116.91;;;-4.34;100.00
58975;BME280;44751;52.236;5.178;2022-11-20T03:53:45;101112.03;;;-4.24;100.00
58975;BME280;44751;52.236;5.178;2022-11-20T03:56:14;101109.81;;;-4.32;100.00
58975;BME280;44751;52.236;5.178;2022-11-20T03:58:41;101111.34;;;-4.46;100.00
58975;BME280;44751;52.236;5.178;2022-11-20T04:01:13;101108.84;;;-4.49;100.00
58975;BME280;44751;52.236;5.178;2022-11-20T04:03:42;101110.94;;;-4.56;100.00
58975;BME280;44751;52.236;5.178;2022-11-20T04:06:14;101105.66;;;-4.56;100.00
58975;BME280;44751;52.236;5.178;2022-11-20T04:08:41;101099.81;;;-4.43;100.00
58975;BME280;44751;52.236;5.178;2022-11-20T04:11:13;101088.72;;;-4.32;100.00
58975;BME280;44751;52.236;5.178;2022-11-20T04:13:45;101085.16;;;-4.49;100.00
58975;BME280;44751;52.236;5.178;2022-11-20T04:16:11;101082.72;;;-4.71;100.00
58975;BME280;44751;52.236;5.178;2022-11-20T04:18:38;101073.44;;;-4.61;100.00
58975;BME280;44751;52.236;5.178;2022-11-20T04:21:05;101075.16;;;-4.79;100.00
58975;BME280;44751;52.236;5.178;2022-11-20T04:23:32;101074.34;;;-4.80;100.00
58975;BME280;44751;52.236;5.178;2022-11-20T04:26:07;101080.09;;;-4.71;100.00
58975;BME280;44751;52.236;5.178;2022-11-20T04:28:34;101077.84;;;-4.61;100.00
58975;BME280;44751;52.236;5.178;2022-11-20T04:31:20;101079.69;;;-4.63;100.00
58975;BME280;44751;52.236;5.178;2022-11-20T04:33:46;101090.44;;;-4.68;100.00
58975;BME280;44751;52.236;5.178;2022-11-20T04:36:14;101084.88;;;-4.80;100.00
58975;BME280;44751;52.236;5.178;2022-11-20T04:38:41;101076.38;;;-4.86;100.00
58975;BME280;44751;52.236;5.178;2022-11-20T04:41:15;101083.00;;;-4.77;100.00
58975;BME280;44751;52.236;5.178;2022-11-20T04:43:46;101080.09;;;-4.71;100.00
58975;BME280;44751;52.236;5.178;2022-11-20T04:46:13;101074.75;;;-4.70;100.00
58975;BME280;44751;52.236;5.178;2022-11-20T04:48:39;101080.69;;;-4.66;100.00
58975;BME280;44751;52.236;5.178;2022-11-20T04:51:06;101080.81;;;-4.87;100.00
58975;BME280;44751;52.236;5.178;2022-11-20T04:53:37;101078.31;;;-4.90;100.00
58975;BME280;44751;52.236;5.178;2022-11-20T04:56:05;101078.41;;;-4.92;100.00
58975;BME280;44751;52.236;5.178;2022-11-20T04:58:33;101079.22;;;-4.72;100.00
58975;BME280;44751;52.236;5.178;2022-11-20T05:01:05;101074.56;;;-4.67;100.00
58975;BME280;44751;52.236;5.178;2022-11-20T05:03:32;101066.59;;;-4.65;100.00
58975;BME280;44751;52.236;5.178;2022-11-20T05:06:04;101077.06;;;-4.63;100.00
58975;BME280;44751;52.236;5.178;2022-11-20T05:08:32;101074.16;;;-4.76;100.00
58975;BME280;44751;52.236;5.178;2022-11-20T05:11:03;101055.53;;;-4.54;100.00
58975;BME280;44751;52.236;5.178;2022-11-20T05:13:30;101044.78;;;-4.49;100.00
58975;BME280;44751;52.236;5.178;2022-11-20T05:16:08;101043.63;;;-4.44;100.00
58975;BME280;44751;52.236;5.178;2022-11-20T05:18:36;101045.94;;;-4.55;100.00
58975;BME280;44751;52.236;5.178;2022-11-20T05:21:06;101044.16;;;-4.55;100.00
58975;BME280;44751;52.236;5.178;2022-11-20T05:23:33;101038.13;;;-4.57;100.00
58975;BME280;44751;52.236;5.178;2022-11-20T05:26:00;101044.66;;;-4.83;100.00
58975;BME280;44751;52.236;5.178;2022-11-20T05:28:28;101034.94;;;-4.63;100.00
58975;BME280;44751;52.236;5.178;2022-11-20T05:31:27;101032.44;;;-4.67;100.00
58975;BME280;44751;52.236;5.178;2022-11-20T05:41:19;101027.03;;;-5.00;100.00
58975;BME280;44751;52.236;5.178;2022-11-20T05:44:20;101031.63;;;-4.86;100.00
58975;BME280;44751;52.236;5.178;2022-11-20T05:46:57;101037.31;;;-4.76;100.00
58975;BME280;44751;52.236;5.178;2022-11-20T05:49:23;101037.50;;;-4.99;100.00
58975;BME280;44751;52.236;5.178;2022-11-20T05:51:50;101049.16;;;-5.05;100.00
58975;BME280;44751;52.236;5.178;2022-11-20T05:54:16;101049.75;;;-4.98;100.00
58975;BME280;44751;52.236;5.178;2022-11-20T05:56:43;101056.50;;;-5.11;100.00
58975;BME280;44751;52.236;5.178;2022-11-20T05:59:12;101045.84;;;-5.08;100.00
58975;BME280;44751;52.236;5.178;2022-11-20T06:01:38;101069.25;;;-5.02;100.00
58975;BME280;44751;52.236;5.178;2022-11-20T06:04:04;101074.25;;;-4.78;100.00
58975;BME280;44751;52.236;5.178;2022-11-20T06:06:31;101063.16;;;-4.85;100.00
58975;BME280;44751;52.236;5.178;2022-11-20T06:08:57;101058.88;;;-5.05;100.00
58975;BME280;44751;52.236;5.178;2022-11-20T06:11:25;101068.25;;;-4.99;100.00
58975;BME280;44751;52.236;5.178;2022-11-20T06:13:53;101068.50;;;-4.86;100.00
58975;BME280;44751;52.236;5.178;2022-11-20T06:16:20;101061.84;;;-4.94;100.00
58975;BME280;44751;52.236;5.178;2022-11-20T06:18:46;101059.41;;;-4.98;100.00
58975;BME280;44751;52.236;5.178;2022-11-20T06:21:19;101057.13;;;-4.87;100.00
58975;BME280;44751;52.236;5.178;2022-11-20T06:23:46;101063.28;;;-4.69;100.00
58975;BME280;44751;52.236;5.178;2022-11-20T06:26:17;101058.06;;;-4.88;100.00
58975;BME280;44751;52.236;5.178;2022-11-20T06:28:44;101060.09;;;-4.75;100.00
58975;BME280;44751;52.236;5.178;2022-11-20T06:31:14;101065.78;;;-4.48;100.00
58975;BME280;44751;52.236;5.178;2022-11-20T06:33:42;101062.75;;;-4.58;100.00
58975;BME280;44751;52.236;5.178;2022-11-20T06:36:14;101059.03;;;-4.71;100.00
58975;BME280;44751;52.236;5.178;2022-11-20T06:38:42;101059.56;;;-4.64;100.00
58975;BME280;44751;52.236;5.178;2022-11-20T06:41:14;101065.25;;;-4.37;100.00
58975;BME280;44751;52.236;5.178;2022-11-20T06:43:50;101056.78;;;-4.44;100.00
58975;BME280;44751;52.236;5.178;2022-11-20T06:46:22;101066.66;;;-4.30;100.00
58975;BME280;44751;52.236;5.178;2022-11-20T06:48:59;101056.47;;;-4.55;100.00
58975;BME280;44751;52.236;5.178;2022-11-20T06:51:25;101052.88;;;-4.72;100.00
58975;BME280;44751;52.236;5.178;2022-11-20T06:53:52;101038.09;;;-4.74;100.00
58975;BME280;44751;52.236;5.178;2022-11-20T06:56:19;101038.91;;;-4.55;100.00
58975;BME280;44751;52.236;5.178;2022-11-20T06:58:53;101049.13;;;-4.31;100.00
58975;BME280;44751;52.236;5.178;2022-11-20T07:01:19;101031.25;;;-4.42;100.00
58975;BME280;44751;52.236;5.178;2022-11-20T07:03:49;101039.84;;;-4.38;100.00
58975;BME280;44751;52.236;5.178;2022-11-20T07:06:17;101044.84;;;-4.69;100.00
58975;BME280;44751;52.236;5.178;2022-11-20T07:08:43;101034.38;;;-4.88;100.00
58975;BME280;44751;52.236;5.178;2022-11-20T07:11:12;101038.97;;;-4.38;100.00
58975;BME280;44751;52.236;5.178;2022-11-20T07:13:39;101029.38;;;-4.57;100.00
58975;BME280;44751;52.236;5.178;2022-11-20T07:16:07;101037.56;;;-4.81;100.00
58975;BME280;44751;52.236;5.178;2022-11-20T07:18:34;101019.28;;;-4.67;100.00
58975;BME280;44751;52.236;5.178;2022-11-20T07:21:02;101027.66;;;-4.23;100.00
58975;BME280;44751;52.236;5.178;2022-11-20T07:23:29;101026.66;;;-4.20;100.00
58975;BME280;44751;52.236;5.178;2022-11-20T07:25:55;101019.44;;;-4.34;100.00
58975;BME280;44751;52.236;5.178;2022-11-20T07:28:22;101021.59;;;-4.07;100.00
58975;BME280;44751;52.236;5.178;2022-11-20T07:30:52;101015.66;;;-4.11;100.00
58975;BME280;44751;52.236;5.178;2022-11-20T07:33:19;101025.78;;;-4.03;100.00
58975;BME280;44751;52.236;5.178;2022-11-20T07:35:46;101026.25;;;-4.30;100.00
58975;BME280;44751;52.236;5.178;2022-11-20T07:38:13;101024.50;;;-4.47;100.00
58975;BME280;44751;52.236;5.178;2022-11-20T07:40:42;101021.94;;;-4.49;100.00
58975;BME280;44751;52.236;5.178;2022-11-20T07:43:08;101020.47;;;-4.19;100.00
58975;BME280;44751;52.236;5.178;2022-11-20T07:45:36;101026.06;;;-3.92;100.00
58975;BME280;44751;52.236;5.178;2022-11-20T07:48:05;101031.28;;;-4.08;100.00
58975;BME280;44751;52.236;5.178;2022-11-20T07:50:34;101038.47;;;-3.94;100.00
58975;BME280;44751;52.236;5.178;2022-11-20T07:53:03;101027.81;;;-4.08;100.00
58975;BME280;44751;52.236;5.178;2022-11-20T07:55:30;101025.84;;;-3.87;100.00
58975;BME280;44751;52.236;5.178;2022-11-20T07:57:59;101023.03;;;-3.84;100.00
58975;BME280;44751;52.236;5.178;2022-11-20T08:00:26;101020.81;;;-3.76;100.00
58975;BME280;44751;52.236;5.178;2022-11-20T08:02:56;101009.75;;;-3.82;100.00
58975;BME280;44751;52.236;5.178;2022-11-20T08:05:22;101017.44;;;-3.78;100.00
58975;BME280;44751;52.236;5.178;2022-11-20T08:07:49;101014.91;;;-3.63;100.00
58975;BME280;44751;52.236;5.178;2022-11-20T08:10:16;101007.94;;;-3.64;100.00
58975;BME280;44751;52.236;5.178;2022-11-20T08:12:48;101015.78;;;-3.46;100.00
58975;BME280;44751;52.236;5.178;2022-11-20T08:15:33;101005.31;;;-3.32;100.00
58975;BME280;44751;52.236;5.178;2022-11-20T08:18:11;101003.00;;;-3.22;100.00
58975;BME280;44751;52.236;5.178;2022-11-20T08:20:38;101000.88;;;-3.15;100.00
58975;BME280;44751;52.236;5.178;2022-11-20T08:23:06;100991.50;;;-3.05;100.00
58975;BME280;44751;52.236;5.178;2022-11-20T08:25:35;101004.63;;;-3.03;100.00
58975;BME280;44751;52.236;5.178;2022-11-20T08:28:09;101004.25;;;-2.97;100.00
58975;BME280;44751;52.236;5.178;2022-11-20T08:30:36;101000.78;;;-3.14;100.00
58975;BME280;44751;52.236;5.178;2022-11-20T08:33:08;100995.34;;;-2.94;100.00
58975;BME280;44751;52.236;5.178;2022-11-20T08:35:38;100998.41;;;-2.86;100.00
58975;BME280;44751;52.236;5.178;2022-11-20T08:38:06;101006.19;;;-2.68;100.00
58975;BME280;44751;52.236;5.178;2022-11-20T08:40:33;101010.69;;;-2.70;100.00
58975;BME280;44751;52.236;5.178;2022-11-20T08:43:00;101004.09;;;-2.78;100.00
58975;BME280;44751;52.236;5.178;2022-11-20T08:45:27;101000.13;;;-2.70;100.00
58975;BME280;44751;52.236;5.178;2022-11-20T08:48:00;100999.53;;;-2.60;100.00
58975;BME280;44751;52.236;5.178;2022-11-20T08:50:27;101003.94;;;-2.60;100.00
58975;BME280;44751;52.236;5.178;2022-11-20T08:52:53;100999.28;;;-2.40;100.00
58975;BME280;44751;52.236;5.178;2022-11-20T08:55:20;101001.91;;;-2.40;100.00
58975;BME280;44751;52.236;5.178;2022-11-20T08:57:47;101007.94;;;-2.38;100.00
58975;BME280;44751;52.236;5.178;2022-11-20T09:00:16;101014.41;;;-2.28;100.00
58975;BME280;44751;52.236;5.178;2022-11-20T09:02:42;101008.25;;;-2.28;100.00
58975;BME280;44751;52.236;5.178;2022-11-20T09:05:09;101006.00;;;-2.20;100.00
58975;BME280;44751;52.236;5.178;2022-11-20T09:07:35;101005.28;;;-2.08;100.00
58975;BME280;44751;52.236;5.178;2022-11-20T09:10:02;100996.19;;;-2.18;100.00
58975;BME280;44751;52.236;5.178;2022-11-20T09:12:35;100998.88;;;-2.03;100.00
58975;BME280;44751;52.236;5.178;2022-11-20T09:15:01;100987.59;;;-2.07;100.00
58975;BME280;44751;52.236;5.178;2022-11-20T09:17:28;100983.09;;;-2.05;100.00
58975;BME280;44751;52.236;5.178;2022-11-20T09:19:55;100983.47;;;-1.97;100.00
58975;BME280;44751;52.236;5.178;2022-11-20T09:22:21;100978.84;;;-1.93;100.00
58975;BME280;44751;52.236;5.178;2022-11-20T09:24:50;100983.44;;;-1.82;100.00
58975;BME280;44751;52.236;5.178;2022-11-20T09:27:17;100979.56;;;-1.76;100.00
58975;BME280;44751;52.236;5.178;2022-11-20T09:29:46;100962.28;;;-1.67;100.00
58975;BME280;44751;52.236;5.178;2022-11-20T09:32:13;100957.91;;;-1.54;100.00
58975;BME280;44751;52.236;5.178;2022-11-20T09:34:39;100941.94;;;-1.52;100.00
58975;BME280;44751;52.236;5.178;2022-11-20T09:37:09;100955.53;;;-1.44;100.00
58975;BME280;44751;52.236;5.178;2022-11-20T09:39:38;100940.97;;;-1.37;100.00
58975;BME280;44751;52.236;5.178;2022-11-20T09:48:00;100942.25;;;-1.30;100.00
58975;BME280;44751;52.236;5.178;2022-11-20T09:50:52;100952.66;;;-1.26;100.00
58975;BME280;44751;52.236;5.178;2022-11-20T09:53:37;100948.66;;;-1.19;100.00
58975;BME280;44751;52.236;5.178;2022-11-20T09:56:09;100939.78;;;-1.05;100.00
58975;BME280;44751;52.236;5.178;2022-11-20T09:58:43;100930.94;;;-1.04;100.00
58975;BME280;44751;52.236;5.178;2022-11-20T10:01:26;100918.66;;;-0.92;100.00
58975;BME280;44751;52.236;5.178;2022-11-20T10:04:18;100929.03;;;-0.89;100.00
58975;BME280;44751;52.236;5.178;2022-11-20T10:09:24;100912.31;;;-0.76;100.00
58975;BME280;44751;52.236;5.178;2022-11-20T10:25:37;100894.44;;;-0.47;100.00
58975;BME280;44751;52.236;5.178;2022-11-20T10:31:06;100886.19;;;-0.42;100.00
58975;BME280;44751;52.236;5.178;2022-11-20T10:33:38;100877.56;;;-0.33;100.00
58975;BME280;44751;52.236;5.178;2022-11-20T10:38:41;100851.06;;;-0.20;100.00
58975;BME280;44751;52.236;5.178;2022-11-20T10:41:13;100849.44;;;-0.09;100.00
58975;BME280;44751;52.236;5.178;2022-11-20T10:44:02;100852.06;;;-0.09;100.00
58975;BME280;44751;52.236;5.178;2022-11-20T10:46:36;100851.47;;;-0.13;100.00
58975;BME280;44751;52.236;5.178;2022-11-20T10:49:17;100860.13;;;-0.11;100.00
58975;BME280;44751;52.236;5.178;2022-11-20T10:54:36;100836.63;;;0.09;100.00
58975;BME280;44751;52.236;5.178;2022-11-20T11:00:03;100831.84;;;0.14;100.00
58975;BME280;44751;52.236;5.178;2022-11-20T11:02:48;100826.69;;;0.12;100.00
58975;BME280;44751;52.236;5.178;2022-11-20T11:05:18;100822.94;;;0.15;100.00
58975;BME280;44751;52.236;5.178;2022-11-20T11:07:51;100812.44;;;0.14;100.00
58975;BME280;44751;52.236;5.178;2022-11-20T11:10:24;100810.69;;;0.25;100.00
58975;BME280;44751;52.236;5.178;2022-11-20T11:12:51;100801.59;;;0.17;100.00
58975;BME280;44751;52.236;5.178;2022-11-20T11:15:37;100797.13;;;0.17;100.00
58975;BME280;44751;52.236;5.178;2022-11-20T11:18:05;100786.91;;;0.24;100.00
58975;BME280;44751;52.236;5.178;2022-11-20T11:20:34;100794.44;;;0.30;100.00
58975;BME280;44751;52.236;5.178;2022-11-20T11:23:01;100790.91;;;0.30;100.00
58975;BME280;44751;52.236;5.178;2022-11-20T11:25:34;100785.34;;;0.46;100.00
58975;BME280;44751;52.236;5.178;2022-11-20T11:30:29;100773.63;;;0.48;100.00
58975;BME280;44751;52.236;5.178;2022-11-20T11:33:04;100761.28;;;0.36;100.00
58975;BME280;44751;52.236;5.178;2022-11-20T11:35:48;100772.88;;;0.46;100.00
58975;BME280;44751;52.236;5.178;2022-11-20T11:38:21;100767.09;;;0.41;100.00
58975;BME280;44751;52.236;5.178;2022-11-20T11:41:05;100760.47;;;0.47;100.00
58975;BME280;44751;52.236;5.178;2022-11-20T11:43:35;100750.81;;;0.46;100.00
58975;BME280;44751;52.236;5.178;2022-11-20T11:49:00;100737.34;;;0.60;100.00
58975;BME280;44751;52.236;5.178;2022-11-20T11:51:40;100740.38;;;0.67;100.00
58975;BME280;44751;52.236;5.178;2022-11-20T11:54:20;100733.97;;;0.58;100.00
58975;BME280;44751;52.236;5.178;2022-11-20T11:56:49;100726.72;;;0.60;100.00
58975;BME280;44751;52.236;5.178;2022-11-20T11:59:27;100721.50;;;0.47;100.00
58975;BME280;44751;52.236;5.178;2022-11-20T12:02:02;100715.00;;;0.51;100.00
58975;BME280;44751;52.236;5.178;2022-11-20T12:04:46;100722.84;;;0.53;100.00
58975;BME280;44751;52.236;5.178;2022-11-20T12:07:29;100719.00;;;0.57;100.00
58975;BME280;44751;52.236;5.178;2022-11-20T12:10:01;100712.59;;;0.60;100.00
58975;BME280;44751;52.236;5.178;2022-11-20T12:12:36;100707.44;;;0.70;100.00
58975;BME280;44751;52.236;5.178;2022-11-20T12:15:22;100706.09;;;0.64;100.00
58975;BME280;44751;52.236;5.178;2022-11-20T12:17:59;100708.28;;;0.70;100.00
58975;BME280;44751;52.236;5.178;2022-11-20T12:20:39;100709.72;;;0.63;100.00
58975;BME280;44751;52.236;5.178;2022-11-20T12:23:20;100699.59;;;0.68;100.00
58975;BME280;44751;52.236;5.178;2022-11-20T12:25:56;100700.16;;;0.60;100.00
58975;BME280;44751;52.236;5.178;2022-11-20T12:37:32;100681.84;;;0.69;100.00
58975;BME280;44751;52.236;5.178;2022-11-20T12:40:22;100677.03;;;0.74;100.00
58975;BME280;44751;52.236;5.178;2022-11-20T12:46:31;100653.94;;;0.74;100.00
58975;BME280;44751;52.236;5.178;2022-11-20T12:49:09;100648.19;;;0.81;100.00
58975;BME280;44751;52.236;5.178;2022-11-20T12:52:15;100638.03;;;0.86;100.00
58975;BME280;44751;52.236;5.178;2022-11-20T12:54:58;100623.19;;;0.83;100.00
58975;BME280;44751;52.236;5.178;2022-11-20T12:58:09;100611.22;;;0.77;100.00
58975;BME280;44751;52.236;5.178;2022-11-20T13:01:17;100606.16;;;0.86;100.00
58975;BME280;44751;52.236;5.178;2022-11-20T13:06:44;100600.38;;;0.92;100.00
58975;BME280;44751;52.236;5.178;2022-11-20T13:09:25;100592.53;;;0.90;100.00
58975;BME280;44751;52.236;5.178;2022-11-20T13:14:41;100592.28;;;0.94;100.00
58975;BME280;44751;52.236;5.178;2022-11-20T13:17:24;100604.34;;;0.98;100.00
58975;BME280;44751;52.236;5.178;2022-11-20T13:19:57;100596.84;;;0.92;100.00
58975;BME280;44751;52.236;5.178;2022-11-20T13:22:26;100587.31;;;1.00;100.00
58975;BME280;44751;52.236;5.178;2022-11-20T13:24:53;100585.63;;;0.99;100.00
58975;BME280;44751;52.236;5.178;2022-11-20T13:27:25;100579.59;;;0.97;100.00
58975;BME280;44751;52.236;5.178;2022-11-20T13:30:14;100582.00;;;1.00;100.00
58975;BME280;44751;52.236;5.178;2022-11-20T13:32:56;100577.53;;;1.01;100.00
58975;BME280;44751;52.236;5.178;2022-11-20T13:35:36;100582.84;;;1.01;100.00
58975;BME280;44751;52.236;5.178;2022-11-20T13:38:13;100596.50;;;0.96;100.00
58975;BME280;44751;52.236;5.178;2022-11-20T13:43:37;100560.75;;;1.00;100.00
58975;BME280;44751;52.236;5.178;2022-11-20T13:46:09;100558.19;;;1.10;100.00
58975;BME280;44751;52.236;5.178;2022-11-20T13:48:42;100550.69;;;1.04;100.00
58975;BME280;44751;52.236;5.178;2022-11-20T13:51:15;100559.78;;;1.01;100.00
58975;BME280;44751;52.236;5.178;2022-11-20T14:02:12;100529.56;;;1.02;100.00
58975;BME280;44751;52.236;5.178;2022-11-20T14:04:43;100535.38;;;1.08;100.00
58975;BME280;44751;52.236;5.178;2022-11-20T14:07:11;100531.53;;;1.00;100.00
58975;BME280;44751;52.236;5.178;2022-11-20T14:09:54;100517.00;;;1.16;100.00
58975;BME280;44751;52.236;5.178;2022-11-20T14:12:29;100500.44;;;1.12;100.00
58975;BME280;44751;52.236;5.178;2022-11-20T14:14:59;100503.88;;;1.03;100.00
58975;BME280;44751;52.236;5.178;2022-11-20T14:17:31;100477.38;;;1.13;100.00
58975;BME280;44751;52.236;5.178;2022-11-20T14:20:21;100466.25;;;1.19;100.00
58975;BME280;44751;52.236;5.178;2022-11-20T14:22:52;100456.13;;;1.13;100.00
58975;BME280;44751;52.236;5.178;2022-11-20T14:25:25;100467.00;;;1.10;100.00
58975;BME280;44751;52.236;5.178;2022-11-20T14:27:55;100464.78;;;1.15;100.00